createdAt,value
2018-06-27T00:01:28.498Z,6.30
2018-06-27T00:03:56.857Z,6.33
2018-06-27T00:06:25.134Z,5.77
2018-06-27T00:08:53.409Z,6.20
2018-06-27T00:11:21.687Z,6.30
2018-06-27T00:13:49.696Z,5.43
2018-06-27T00:16:17.964Z,5.77
2018-06-27T00:18:46.241Z,5.53
2018-06-27T00:21:14.503Z,5.80
2018-06-27T00:23:42.802Z,5.57
2018-06-27T00:26:11.102Z,5.77
2018-06-27T00:28:39.398Z,5.50
2018-06-27T00:31:07.667Z,5.87
2018-06-27T00:33:35.922Z,5.67
2018-06-27T00:36:04.188Z,5.60
2018-06-27T00:38:32.447Z,5.83
2018-06-27T00:41:00.445Z,5.30
2018-06-27T00:43:28.710Z,5.50
2018-06-27T00:45:56.996Z,5.70
2018-06-27T00:48:25.262Z,5.70
2018-06-27T00:50:53.550Z,5.77
2018-06-27T00:53:26.035Z,5.63
2018-06-27T00:55:54.301Z,5.70
2018-06-27T00:58:22.556Z,5.20
2018-06-27T01:00:50.845Z,5.80
2018-06-27T01:03:19.127Z,5.30
2018-06-27T01:05:47.391Z,5.70
2018-06-27T01:08:15.658Z,5.57
2018-06-27T01:10:44.039Z,5.90
2018-06-27T01:13:12.191Z,6.00
2018-06-27T01:15:40.471Z,5.57
2018-06-27T01:18:08.728Z,4.97
2018-06-27T01:20:36.996Z,4.87
2018-06-27T01:23:05.282Z,5.17
2018-06-27T01:25:33.555Z,5.37
2018-06-27T01:28:01.815Z,5.33
2018-06-27T01:30:30.081Z,4.70
2018-06-27T01:32:58.348Z,5.23
2018-06-27T01:35:26.626Z,4.73
2018-06-27T01:37:54.899Z,4.83
2018-06-27T01:40:23.180Z,5.00
2018-06-27T01:42:51.633Z,5.57
2018-06-27T01:45:19.931Z,5.27
2018-06-27T01:47:48.203Z,5.20
2018-06-27T01:50:16.485Z,4.97
2018-06-27T01:52:44.754Z,5.27
2018-06-27T01:55:13.476Z,4.80
2018-06-27T01:57:41.754Z,4.63
2018-06-27T02:00:10.161Z,4.80
2018-06-27T02:02:38.466Z,4.33
2018-06-27T02:05:06.742Z,4.53
2018-06-27T02:07:34.995Z,4.23
2018-06-27T02:10:03.318Z,4.67
2018-06-27T02:12:31.590Z,4.80
2018-06-27T02:14:59.868Z,4.30
2018-06-27T02:17:28.134Z,4.30
2018-06-27T02:19:56.383Z,4.43
2018-06-27T02:22:24.720Z,4.63
2018-06-27T02:24:52.984Z,4.93
2018-06-27T02:27:21.249Z,5.23
2018-06-27T02:29:49.612Z,5.20
2018-06-27T02:32:17.876Z,4.97
2018-06-27T02:34:46.133Z,5.23
2018-06-27T02:37:15.363Z,5.20
2018-06-27T02:39:44.104Z,4.77
2018-06-27T02:42:12.758Z,4.60
2018-06-27T02:44:41.013Z,5.10
2018-06-27T02:47:09.275Z,5.63
2018-06-27T02:49:37.588Z,4.50
2018-06-27T02:52:05.827Z,4.90
2018-06-27T02:54:34.103Z,5.00
2018-06-27T02:57:02.369Z,5.00
2018-06-27T02:59:30.611Z,4.87
2018-06-27T03:01:58.864Z,4.93
2018-06-27T03:04:27.152Z,4.80
2018-06-27T03:06:55.440Z,4.93
2018-06-27T03:09:23.731Z,5.20
2018-06-27T03:11:52.013Z,4.30
2018-06-27T03:14:20.283Z,4.73
2018-06-27T03:16:48.586Z,4.70
2018-06-27T03:19:16.848Z,4.63
2018-06-27T03:21:45.126Z,4.53
2018-06-27T03:24:13.422Z,4.87
2018-06-27T03:26:41.682Z,4.50
2018-06-27T03:29:10.223Z,4.80
2018-06-27T03:31:38.527Z,4.60
2018-06-27T03:34:06.831Z,4.93
2018-06-27T03:36:35.113Z,4.50
2018-06-27T03:39:04.619Z,4.83
2018-06-27T03:41:32.895Z,4.20
2018-06-27T03:44:01.184Z,4.87
2018-06-27T03:46:29.182Z,4.47
2018-06-27T03:48:57.457Z,4.53
2018-06-27T03:51:25.742Z,4.57
2018-06-27T03:53:59.293Z,4.67
2018-06-27T03:56:28.071Z,4.40
2018-06-27T03:58:56.395Z,4.30
2018-06-27T04:01:24.681Z,4.03
2018-06-27T04:03:53.052Z,3.60
2018-06-27T04:06:21.434Z,4.10
2018-06-27T04:08:49.711Z,4.90
2018-06-27T04:11:18.155Z,4.07
2018-06-27T04:16:06.623Z,4.97
2018-06-27T04:18:34.986Z,5.20
2018-06-27T04:21:03.394Z,4.43
2018-06-27T04:23:31.658Z,4.47
2018-06-27T04:25:59.955Z,4.60
2018-06-27T04:28:28.327Z,4.17
2018-06-27T04:30:56.688Z,4.63
2018-06-27T04:33:25.099Z,4.50
2018-06-27T04:35:53.389Z,4.30
2018-06-27T04:38:21.686Z,4.00
2018-06-27T04:40:50.082Z,4.37
2018-06-27T04:43:18.379Z,4.33
2018-06-27T04:45:46.640Z,4.20
2018-06-27T04:48:16.425Z,4.47
2018-06-27T04:53:17.966Z,4.63
2018-06-27T04:55:46.251Z,4.63
2018-06-27T04:58:14.530Z,4.83
2018-06-27T05:00:42.810Z,4.50
2018-06-27T05:03:11.070Z,4.67
2018-06-27T05:05:39.344Z,4.50
2018-06-27T05:08:07.738Z,4.27
2018-06-27T05:10:36.198Z,4.60
2018-06-27T05:13:04.461Z,4.00
2018-06-27T05:15:32.734Z,4.93
2018-06-27T05:18:00.722Z,5.13
2018-06-27T05:20:28.981Z,4.97
2018-06-27T05:22:57.231Z,5.40
2018-06-27T05:25:25.515Z,5.33
2018-06-27T05:27:53.774Z,6.17
2018-06-27T05:30:22.110Z,5.90
2018-06-27T05:32:50.397Z,6.17
2018-06-27T05:35:18.673Z,6.50
2018-06-27T05:37:46.934Z,6.13
2018-06-27T05:40:15.170Z,6.00
2018-06-27T05:42:43.423Z,5.33
2018-06-27T05:45:11.683Z,6.23
2018-06-27T05:47:39.933Z,5.40
2018-06-27T05:50:08.194Z,5.60
2018-06-27T05:52:36.445Z,6.63
2018-06-27T05:55:10.004Z,4.93
2018-06-27T05:57:39.851Z,5.85
2018-06-27T06:00:09.131Z,4.70
2018-06-27T06:02:37.702Z,4.62
2018-06-27T06:05:06.130Z,4.37
2018-06-27T06:07:34.441Z,4.22
2018-06-27T06:10:02.766Z,4.65
2018-06-27T06:12:31.306Z,4.42
2018-06-27T06:14:59.592Z,4.83
2018-06-27T06:17:28.019Z,3.62
2018-06-27T06:19:56.276Z,3.83
2018-06-27T06:22:24.545Z,3.95
2018-06-27T06:24:52.812Z,4.08
2018-06-27T06:27:21.103Z,3.52
2018-06-27T06:29:49.375Z,2.95
2018-06-27T06:32:17.826Z,4.05
2018-06-27T06:34:46.029Z,3.33
2018-06-27T06:37:14.346Z,3.50
2018-06-27T06:39:42.613Z,3.40
2018-06-27T06:42:10.891Z,3.50
2018-06-27T06:44:39.161Z,2.87
2018-06-27T06:47:07.426Z,3.50
2018-06-27T06:49:35.696Z,3.12
2018-06-27T06:52:04.048Z,2.98
2018-06-27T06:54:33.272Z,2.77
2018-06-27T06:57:01.554Z,3.02
2018-06-27T06:59:29.844Z,3.22
2018-06-27T07:01:58.108Z,2.80
2018-06-27T07:04:26.367Z,2.92
2018-06-27T07:06:54.646Z,2.70
2018-06-27T07:09:22.918Z,2.60
2018-06-27T07:11:51.180Z,2.83
2018-06-27T07:14:19.469Z,2.60
2018-06-27T07:16:47.748Z,3.05
2018-06-27T07:19:16.018Z,2.60
2018-06-27T07:21:44.316Z,2.47
2018-06-27T07:24:12.596Z,2.60
2018-06-27T07:26:40.852Z,2.25
2018-06-27T07:29:09.126Z,2.50
2018-06-27T07:31:37.386Z,2.67
2018-06-27T07:34:05.647Z,2.05
2018-06-27T07:36:33.910Z,1.65
2018-06-27T07:39:02.207Z,1.47
2018-06-27T07:41:30.475Z,1.80
2018-06-27T07:43:58.827Z,2.00
2018-06-27T07:46:27.141Z,1.90
2018-06-27T07:48:55.632Z,1.95
2018-06-27T07:51:23.911Z,2.20
2018-06-27T07:53:52.173Z,1.72
2018-06-27T07:56:20.454Z,2.00
2018-06-27T07:58:48.750Z,1.80
2018-06-27T08:01:17.020Z,2.35
2018-06-27T08:03:45.934Z,2.15
2018-06-27T08:06:14.206Z,2.20
2018-06-27T08:08:42.223Z,2.37
2018-06-27T08:11:10.515Z,2.15
2018-06-27T08:13:38.787Z,2.75
2018-06-27T08:16:07.047Z,2.58
2018-06-27T08:18:40.470Z,2.50
2018-06-27T08:21:08.725Z,2.47
2018-06-27T08:23:36.987Z,2.47
2018-06-27T08:26:05.318Z,1.90
2018-06-27T08:28:33.637Z,1.50
2018-06-27T08:31:01.890Z,1.37
2018-06-27T08:33:30.163Z,1.40
2018-06-27T08:35:58.451Z,1.70
2018-06-27T08:38:26.733Z,1.50
2018-06-27T08:40:55.017Z,1.75
2018-06-27T08:43:23.282Z,1.60
2018-06-27T08:45:51.559Z,1.98
2018-06-27T08:48:19.837Z,1.30
2018-06-27T08:50:48.120Z,1.50
2018-06-27T08:53:16.382Z,1.57
2018-06-27T08:55:44.654Z,1.95
2018-06-27T08:58:12.920Z,1.80
2018-06-27T09:00:41.187Z,1.62
2018-06-27T09:03:09.493Z,1.52
2018-06-27T09:05:37.751Z,1.50
2018-06-27T09:08:06.231Z,1.85
2018-06-27T09:10:34.499Z,1.80
2018-06-27T09:13:02.750Z,1.77
2018-06-27T09:15:31.043Z,1.80
2018-06-27T09:17:59.331Z,1.82
2018-06-27T09:20:27.593Z,1.37
2018-06-27T09:22:55.854Z,1.50
2018-06-27T09:25:24.120Z,1.77
2018-06-27T09:27:52.460Z,1.82
2018-06-27T09:30:20.730Z,1.55
2018-06-27T09:32:49.010Z,1.80
2018-06-27T09:35:17.280Z,1.40
2018-06-27T09:37:45.546Z,1.42
2018-06-27T09:40:13.811Z,1.72
2018-06-27T09:42:42.080Z,1.40
2018-06-27T09:45:10.330Z,1.30
2018-06-27T09:47:38.585Z,1.12
2018-06-27T09:50:07.139Z,1.50
2018-06-27T09:52:35.391Z,1.40
2018-06-27T09:55:03.681Z,1.30
2018-06-27T09:57:31.951Z,1.60
2018-06-27T10:00:00.207Z,1.32
2018-06-27T10:02:28.463Z,1.40
2018-06-27T10:04:56.738Z,1.35
2018-06-27T10:07:25.020Z,1.42
2018-06-27T10:09:53.304Z,1.30
2018-06-27T10:12:21.579Z,1.00
2018-06-27T10:14:49.871Z,1.37
2018-06-27T10:17:18.209Z,1.27
2018-06-27T10:19:46.441Z,1.20
2018-06-27T10:22:14.761Z,1.30
2018-06-27T10:24:43.016Z,1.30
2018-06-27T10:27:11.279Z,0.82
2018-06-27T10:29:39.549Z,1.10
2018-06-27T10:32:07.836Z,1.00
2018-06-27T10:34:36.100Z,1.07
2018-06-27T10:37:04.482Z,1.22
2018-06-27T10:39:32.753Z,1.00
2018-06-27T10:42:01.018Z,1.00
2018-06-27T10:44:29.962Z,1.07
2018-06-27T10:46:58.473Z,1.05
2018-06-27T10:49:26.758Z,1.05
2018-06-27T10:51:55.026Z,0.93
2018-06-27T10:54:23.293Z,1.20
2018-06-27T10:56:51.574Z,1.27
2018-06-27T10:59:19.840Z,1.10
2018-06-27T11:01:48.131Z,1.20
2018-06-27T11:04:16.439Z,1.10
2018-06-27T11:06:44.907Z,1.37
2018-06-27T11:09:13.208Z,1.30
2018-06-27T11:11:41.498Z,1.20
2018-06-27T11:14:24.395Z,1.57
2018-06-27T11:16:52.683Z,1.50
2018-06-27T11:19:20.932Z,1.37
2018-06-27T11:21:49.223Z,1.20
2018-06-27T11:24:17.478Z,1.25
2018-06-27T11:26:45.736Z,1.35
2018-06-27T11:29:14.027Z,1.42
2018-06-27T11:31:42.327Z,1.60
2018-06-27T11:34:10.600Z,1.60
2018-06-27T11:36:38.882Z,1.42
2018-06-27T11:39:09.366Z,1.55
2018-06-27T11:41:37.659Z,1.45
2018-06-27T11:44:06.007Z,1.70
2018-06-27T11:46:34.497Z,1.10
2018-06-27T11:49:02.781Z,1.32
2018-06-27T11:51:31.082Z,1.67
2018-06-27T11:53:59.370Z,1.67
2018-06-27T11:56:27.666Z,1.60
2018-06-27T11:58:55.972Z,1.85
2018-06-27T12:01:24.249Z,1.82
2018-06-27T12:03:52.536Z,1.47
2018-06-27T12:06:20.842Z,1.75
2018-06-27T12:08:49.228Z,1.92
2018-06-27T12:11:17.847Z,1.45
2018-06-27T12:13:46.366Z,1.52
2018-06-27T12:16:14.654Z,1.25
2018-06-27T12:18:42.967Z,1.80
2018-06-27T12:21:11.239Z,1.70
2018-06-27T12:23:39.545Z,1.45
2018-06-27T12:26:08.097Z,1.40
2018-06-27T12:28:36.384Z,1.42
2018-06-27T12:31:04.687Z,1.30
2018-06-27T12:33:32.971Z,1.30
2018-06-27T12:36:01.255Z,1.52
2018-06-27T12:38:29.545Z,1.50
2018-06-27T12:40:57.824Z,1.50
2018-06-27T12:43:26.120Z,1.42
2018-06-27T12:45:54.405Z,1.42
2018-06-27T12:48:22.670Z,1.30
2018-06-27T12:50:51.037Z,1.50
2018-06-27T12:53:19.338Z,1.75
2018-06-27T12:55:47.615Z,1.40
2018-06-27T12:58:16.147Z,1.60
2018-06-27T13:00:44.428Z,1.60
2018-06-27T13:03:12.720Z,1.30
2018-06-27T13:05:41.015Z,1.30
2018-06-27T13:08:09.312Z,1.30
2018-06-27T13:10:37.614Z,1.40
2018-06-27T13:13:06.084Z,1.20
2018-06-27T13:15:34.367Z,1.27
2018-06-27T13:18:02.947Z,1.20
2018-06-27T13:20:31.375Z,1.20
2018-06-27T13:22:59.730Z,1.25
2018-06-27T13:25:28.204Z,1.30
2018-06-27T13:27:56.546Z,1.10
2018-06-27T13:30:24.850Z,1.10
2018-06-27T13:32:53.270Z,1.00
2018-06-27T13:35:21.557Z,1.30
2018-06-27T13:37:49.840Z,1.20
2018-06-27T13:40:18.107Z,1.30
2018-06-27T13:42:46.402Z,1.22
2018-06-27T13:45:14.687Z,1.40
2018-06-27T13:47:42.771Z,1.20
2018-06-27T13:50:11.118Z,1.25
2018-06-27T13:52:39.559Z,1.30
2018-06-27T13:55:07.983Z,1.15
2018-06-27T13:57:36.455Z,1.27
2018-06-27T14:00:05.289Z,1.20
2018-06-27T14:02:33.882Z,1.17
2018-06-27T14:05:02.235Z,1.25
2018-06-27T14:07:30.503Z,1.02
2018-06-27T14:09:58.791Z,1.05
2018-06-27T14:12:27.072Z,1.22
2018-06-27T14:14:55.381Z,1.30
2018-06-27T14:17:23.735Z,1.00
2018-06-27T14:19:52.070Z,1.10
2018-06-27T14:22:20.383Z,1.30
2018-06-27T14:24:48.659Z,1.20
2018-06-27T14:27:17.044Z,1.22
2018-06-27T14:29:45.690Z,1.20
2018-06-27T14:32:14.198Z,1.30
2018-06-27T14:34:42.580Z,1.20
2018-06-27T14:37:11.097Z,1.02
2018-06-27T14:39:39.784Z,1.30
2018-06-27T14:42:08.140Z,1.10
2018-06-27T14:44:37.930Z,1.17
2018-06-27T14:47:06.326Z,1.37
2018-06-27T14:49:34.775Z,1.42
2018-06-27T14:52:02.866Z,1.40
2018-06-27T14:54:31.230Z,1.22
2018-06-27T14:56:59.627Z,1.25
2018-06-27T14:59:28.063Z,1.17
2018-06-27T15:01:56.379Z,1.40
2018-06-27T15:04:24.661Z,1.37
2018-06-27T15:06:52.951Z,1.00
2018-06-27T15:09:21.256Z,1.10
2018-06-27T15:11:49.704Z,1.17
2018-06-27T15:14:18.051Z,1.17
2018-06-27T15:16:46.285Z,1.15
2018-06-27T15:19:15.618Z,1.25
2018-06-27T15:21:43.899Z,1.60
2018-06-27T15:24:12.295Z,1.20
2018-06-27T15:26:40.685Z,2.35
2018-06-27T15:29:09.222Z,2.98
2018-06-27T15:31:37.627Z,1.17
2018-06-27T15:34:06.100Z,11.35
2018-06-27T15:36:34.419Z,10.13
2018-06-27T15:39:02.877Z,3.70
2018-06-27T15:41:31.219Z,1.82
2018-06-27T15:43:59.506Z,6.05
2018-06-27T15:46:30.881Z,3.57
2018-06-27T15:48:59.320Z,1.57
2018-06-27T15:51:27.660Z,10.23
2018-06-27T15:53:56.015Z,17.60
2018-06-27T15:56:24.823Z,2.17
2018-06-27T15:58:55.051Z,1.60
2018-06-27T16:01:24.174Z,3.10
2018-06-27T16:03:55.069Z,1.53
2018-06-27T16:06:23.402Z,5.57
2018-06-27T16:08:51.659Z,2.90
2018-06-27T16:11:20.077Z,1.30
2018-06-27T16:13:48.265Z,2.00
2018-06-27T16:16:18.416Z,1.80
2018-06-27T16:18:46.666Z,1.33
2018-06-27T16:21:14.931Z,4.00
2018-06-27T16:23:43.182Z,1.30
2018-06-27T16:26:11.440Z,1.17
2018-06-27T16:28:39.711Z,1.30
2018-06-27T16:31:07.995Z,1.40
2018-06-27T16:33:36.339Z,1.30
2018-06-27T16:36:05.073Z,2.43
2018-06-27T16:38:33.587Z,1.30
2018-06-27T16:41:01.896Z,1.23
2018-06-27T16:43:31.030Z,1.27
2018-06-27T16:45:59.425Z,1.93
2018-06-27T16:48:27.744Z,1.47
2018-06-27T16:50:56.104Z,1.30
2018-06-27T16:53:24.539Z,1.70
2018-06-27T16:55:54.722Z,1.50
2018-06-27T16:58:23.004Z,1.70
2018-06-27T17:00:51.321Z,1.33
2018-06-27T17:03:19.739Z,1.50
2018-06-27T17:05:48.148Z,1.70
2018-06-27T17:08:16.499Z,1.60
2018-06-27T17:10:44.826Z,1.40
2018-06-27T17:13:14.007Z,1.40
2018-06-27T17:15:42.759Z,1.40
2018-06-27T17:18:11.174Z,1.70
2018-06-27T17:20:39.474Z,1.30
2018-06-27T17:23:07.897Z,1.60
2018-06-27T17:25:36.176Z,1.67
2018-06-27T17:28:05.137Z,1.47
2018-06-27T17:30:33.507Z,1.20
2018-06-27T17:33:02.095Z,1.60
2018-06-27T17:35:30.989Z,1.33
2018-06-27T17:37:59.878Z,1.43
2018-06-27T17:40:28.282Z,1.60
2018-06-27T17:42:56.592Z,1.80
2018-06-27T17:45:25.017Z,2.00
2018-06-27T17:47:54.199Z,1.80
2018-06-27T17:50:23.283Z,3.47
2018-06-27T17:52:54.887Z,1.83
2018-06-27T17:55:23.317Z,1.50
2018-06-27T17:57:51.782Z,1.50
2018-06-27T18:00:20.468Z,1.60
2018-06-27T18:02:49.069Z,1.53
2018-06-27T18:05:17.527Z,1.80
2018-06-27T18:07:45.834Z,1.63
2018-06-27T18:10:14.087Z,1.40
2018-06-27T18:12:42.339Z,1.60
2018-06-27T18:15:10.602Z,1.27
2018-06-27T18:17:39.167Z,1.57
2018-06-27T18:20:07.478Z,1.53
2018-06-27T18:22:35.760Z,1.80
2018-06-27T18:25:04.590Z,1.50
2018-06-27T18:27:32.843Z,1.60
2018-06-27T18:30:01.127Z,1.73
2018-06-27T18:32:29.807Z,1.63
2018-06-27T18:34:59.422Z,1.70
2018-06-27T18:37:27.738Z,1.70
2018-06-27T18:39:56.047Z,1.80
2018-06-27T18:42:24.327Z,1.60
2018-06-27T18:44:52.619Z,1.70
2018-06-27T18:47:20.908Z,1.73
2018-06-27T18:49:49.467Z,1.87
2018-06-27T18:52:17.764Z,1.73
2018-06-27T18:54:45.757Z,1.70
2018-06-27T18:57:14.016Z,1.67
2018-06-27T18:59:42.294Z,1.70
2018-06-27T19:02:10.544Z,1.50
2018-06-27T19:04:38.796Z,2.00
2018-06-27T19:07:07.059Z,1.80
2018-06-27T19:09:35.312Z,1.90
2018-06-27T19:12:03.590Z,1.57
2018-06-27T19:14:31.850Z,1.70
2018-06-27T19:17:01.012Z,1.50
2018-06-27T19:19:29.260Z,1.80
2018-06-27T19:21:57.538Z,1.67
2018-06-27T19:24:25.857Z,1.90
2018-06-27T19:26:54.143Z,1.80
2018-06-27T19:29:22.766Z,1.70
2018-06-27T19:31:51.028Z,1.60
2018-06-27T19:34:19.871Z,1.60
2018-06-27T19:36:48.913Z,1.67
2018-06-27T19:39:17.193Z,1.80
2018-06-27T19:41:45.449Z,1.70
2018-06-27T19:44:13.711Z,1.87
2018-06-27T19:46:42.036Z,1.80
2018-06-27T19:49:10.027Z,1.93
2018-06-27T19:51:38.368Z,1.70
2018-06-27T19:54:06.595Z,1.80
2018-06-27T19:56:34.939Z,2.20
2018-06-27T19:59:03.380Z,1.70
2018-06-27T20:01:31.631Z,1.80
2018-06-27T20:04:11.613Z,2.10
2018-06-27T20:06:39.915Z,1.90
2018-06-27T20:09:09.249Z,1.87
2018-06-27T20:11:37.541Z,2.07
2018-06-27T20:14:05.921Z,1.87
2018-06-27T20:16:34.136Z,2.17
2018-06-27T20:19:02.439Z,2.30
2018-06-27T20:21:30.665Z,2.10
2018-06-27T20:23:58.911Z,2.20
2018-06-27T20:26:27.234Z,2.30
2018-06-27T20:28:55.505Z,2.10
2018-06-27T20:31:23.743Z,2.10
2018-06-27T20:33:52.005Z,2.50
2018-06-27T20:36:20.241Z,2.37
2018-06-27T20:38:48.503Z,2.53
2018-06-27T20:41:16.753Z,2.13
2018-06-27T20:43:45.009Z,2.60
2018-06-27T20:46:13.279Z,2.37
2018-06-27T20:50:19.624Z,3.03
2018-06-27T20:52:48.108Z,2.77
2018-06-27T20:55:16.383Z,2.27
2018-06-27T20:57:44.651Z,2.77
2018-06-27T21:00:12.897Z,2.50
2018-06-27T21:02:41.135Z,2.83
2018-06-27T21:05:09.401Z,3.50
2018-06-27T21:07:37.684Z,3.07
2018-06-27T21:10:06.011Z,2.73
2018-06-27T21:12:34.314Z,3.23
2018-06-27T21:15:02.625Z,2.80
2018-06-27T21:17:30.931Z,2.67
2018-06-27T21:19:59.231Z,2.97
2018-06-27T21:22:27.560Z,2.97
2018-06-27T21:24:55.841Z,3.17
2018-06-27T21:27:24.114Z,2.80
2018-06-27T21:29:52.411Z,2.80
2018-06-27T21:32:20.694Z,3.20
2018-06-27T21:34:48.987Z,3.00
2018-06-27T21:37:17.253Z,2.83
2018-06-27T21:39:45.536Z,2.60
2018-06-27T21:42:13.857Z,2.93
2018-06-27T21:44:42.138Z,3.40
2018-06-27T21:47:10.411Z,3.03
2018-06-27T21:49:38.688Z,3.20
2018-06-27T21:52:06.959Z,3.40
2018-06-27T21:54:35.235Z,3.50
2018-06-27T21:57:03.495Z,3.27
2018-06-27T21:59:31.783Z,3.47
2018-06-27T22:02:00.112Z,3.50
2018-06-27T22:04:28.412Z,3.83
2018-06-27T22:06:56.696Z,3.60
2018-06-27T22:09:24.980Z,3.73
2018-06-27T22:11:53.291Z,3.90
2018-06-27T22:14:21.534Z,3.70
2018-06-27T22:16:49.825Z,3.60
2018-06-27T22:19:18.395Z,3.70
2018-06-27T22:21:46.705Z,4.00
2018-06-27T22:24:14.944Z,3.50
2018-06-27T22:26:42.967Z,3.83
2018-06-27T22:29:11.220Z,4.10
2018-06-27T22:31:39.461Z,3.63
2018-06-27T22:34:07.725Z,4.27
2018-06-27T22:36:36.004Z,4.27
2018-06-27T22:39:07.161Z,3.70
2018-06-27T22:41:35.459Z,4.17
2018-06-27T22:44:03.926Z,4.27
2018-06-27T22:46:32.166Z,4.20
2018-06-27T22:49:00.170Z,4.20
2018-06-27T22:51:28.425Z,4.00
2018-06-27T22:53:56.726Z,4.27
2018-06-27T22:56:25.096Z,4.40
2018-06-27T22:58:53.359Z,4.07
2018-06-27T23:01:21.606Z,4.40
2018-06-27T23:03:49.861Z,4.40
2018-06-27T23:06:18.147Z,4.80
2018-06-27T23:08:46.434Z,4.37
2018-06-27T23:11:14.783Z,4.50
2018-06-27T23:13:43.053Z,4.37
2018-06-27T23:16:11.390Z,4.00
2018-06-27T23:18:39.681Z,4.10
2018-06-27T23:21:07.954Z,4.50
2018-06-27T23:23:36.235Z,4.63
2018-06-27T23:26:04.508Z,4.30
2018-06-27T23:28:32.794Z,4.43
2018-06-27T23:31:01.084Z,4.33
2018-06-27T23:33:29.374Z,4.50
2018-06-27T23:35:57.674Z,4.73
2018-06-27T23:38:25.994Z,4.77
2018-06-27T23:40:54.303Z,4.90
2018-06-27T23:43:22.627Z,4.40
2018-06-27T23:45:50.923Z,4.67
2018-06-27T23:48:19.214Z,4.77
2018-06-27T23:50:47.539Z,4.70
2018-06-27T23:53:15.819Z,4.77
2018-06-27T23:55:44.107Z,4.57
2018-06-27T23:58:12.401Z,4.80
